sensor_id;sensor_type;location;lat;lon;timestamp;P1;durP1;ratioP1;P2;durP2;ratioP2
6113;SDS011;3087;48.392;10.836;2023-07-13T00:02:02;6.88;;;5.90;;
6113;SDS011;3087;48.392;10.836;2023-07-13T00:04:28;7.68;;;6.95;;
6113;SDS011;3087;48.392;10.836;2023-07-13T00:06:53;9.20;;;7.55;;
6113;SDS011;3087;48.392;10.836;2023-07-13T00:09:19;11.15;;;8.77;;
6113;SDS011;3087;48.392;10.836;2023-07-13T00:11:50;8.32;;;6.88;;
6113;SDS011;3087;48.392;10.836;2023-07-13T00:14:17;10.00;;;7.47;;
6113;SDS011;3087;48.392;10.836;2023-07-13T00:16:43;8.82;;;6.78;;
6113;SDS011;3087;48.392;10.836;2023-07-13T00:19:10;9.73;;;8.73;;
6113;SDS011;3087;48.392;10.836;2023-07-13T00:21:36;7.50;;;6.75;;
6113;SDS011;3087;48.392;10.836;2023-07-13T00:24:03;6.95;;;6.25;;
6113;SDS011;3087;48.392;10.836;2023-07-13T00:26:29;8.45;;;7.28;;
6113;SDS011;3087;48.392;10.836;2023-07-13T00:28:54;13.18;;;9.57;;
6113;SDS011;3087;48.392;10.836;2023-07-13T00:31:20;10.23;;;8.45;;
6113;SDS011;3087;48.392;10.836;2023-07-13T00:33:46;10.48;;;7.65;;
6113;SDS011;3087;48.392;10.836;2023-07-13T00:36:11;13.00;;;8.15;;
6113;SDS011;3087;48.392;10.836;2023-07-13T00:38:37;8.20;;;6.85;;
6113;SDS011;3087;48.392;10.836;2023-07-13T00:41:03;9.85;;;7.90;;
6113;SDS011;3087;48.392;10.836;2023-07-13T00:43:29;10.70;;;8.88;;
6113;SDS011;3087;48.392;10.836;2023-07-13T00:48:23;10.07;;;8.57;;
6113;SDS011;3087;48.392;10.836;2023-07-13T00:50:53;9.63;;;7.85;;
6113;SDS011;3087;48.392;10.836;2023-07-13T00:53:21;12.63;;;10.25;;
6113;SDS011;3087;48.392;10.836;2023-07-13T00:55:50;10.43;;;8.60;;
6113;SDS011;3087;48.392;10.836;2023-07-13T00:58:16;12.50;;;8.65;;
6113;SDS011;3087;48.392;10.836;2023-07-13T01:00:42;10.10;;;8.65;;
6113;SDS011;3087;48.392;10.836;2023-07-13T01:03:08;10.15;;;7.75;;
6113;SDS011;3087;48.392;10.836;2023-07-13T01:05:34;12.45;;;9.70;;
6113;SDS011;3087;48.392;10.836;2023-07-13T01:08:00;14.20;;;9.15;;
6113;SDS011;3087;48.392;10.836;2023-07-13T01:10:29;10.68;;;8.50;;
6113;SDS011;3087;48.392;10.836;2023-07-13T01:13:04;10.68;;;8.45;;
6113;SDS011;3087;48.392;10.836;2023-07-13T01:18:05;9.50;;;6.35;;
6113;SDS011;3087;48.392;10.836;2023-07-13T01:20:34;7.75;;;6.55;;
6113;SDS011;3087;48.392;10.836;2023-07-13T01:23:11;12.27;;;9.65;;
6113;SDS011;3087;48.392;10.836;2023-07-13T01:25:38;14.07;;;10.38;;
6113;SDS011;3087;48.392;10.836;2023-07-13T01:28:05;10.75;;;9.00;;
6113;SDS011;3087;48.392;10.836;2023-07-13T01:30:33;14.60;;;10.80;;
6113;SDS011;3087;48.392;10.836;2023-07-13T01:33:00;12.57;;;9.27;;
6113;SDS011;3087;48.392;10.836;2023-07-13T01:35:26;12.65;;;10.60;;
6113;SDS011;3087;48.392;10.836;2023-07-13T01:37:52;8.55;;;5.97;;
6113;SDS011;3087;48.392;10.836;2023-07-13T01:40:18;10.73;;;7.22;;
6113;SDS011;3087;48.392;10.836;2023-07-13T01:42:44;16.38;;;14.18;;
6113;SDS011;3087;48.392;10.836;2023-07-13T01:45:10;9.32;;;8.27;;
6113;SDS011;3087;48.392;10.836;2023-07-13T01:47:35;15.00;;;11.35;;
6113;SDS011;3087;48.392;10.836;2023-07-13T01:50:01;14.60;;;11.73;;
6113;SDS011;3087;48.392;10.836;2023-07-13T01:52:26;12.30;;;9.13;;
6113;SDS011;3087;48.392;10.836;2023-07-13T01:54:52;14.45;;;10.90;;
6113;SDS011;3087;48.392;10.836;2023-07-13T01:57:17;15.63;;;12.57;;
6113;SDS011;3087;48.392;10.836;2023-07-13T01:59:43;12.57;;;11.18;;
6113;SDS011;3087;48.392;10.836;2023-07-13T02:02:08;12.63;;;10.48;;
6113;SDS011;3087;48.392;10.836;2023-07-13T02:04:34;12.23;;;9.40;;
6113;SDS011;3087;48.392;10.836;2023-07-13T02:07:00;9.45;;;7.50;;
6113;SDS011;3087;48.392;10.836;2023-07-13T02:09:25;14.57;;;11.05;;
6113;SDS011;3087;48.392;10.836;2023-07-13T02:11:51;9.07;;;8.15;;
6113;SDS011;3087;48.392;10.836;2023-07-13T02:14:17;10.75;;;9.05;;
6113;SDS011;3087;48.392;10.836;2023-07-13T02:16:42;11.52;;;9.45;;
6113;SDS011;3087;48.392;10.836;2023-07-13T02:19:08;14.02;;;10.70;;
6113;SDS011;3087;48.392;10.836;2023-07-13T02:21:34;15.48;;;11.65;;
6113;SDS011;3087;48.392;10.836;2023-07-13T02:24:05;9.40;;;8.10;;
6113;SDS011;3087;48.392;10.836;2023-07-13T02:26:57;10.45;;;9.35;;
6113;SDS011;3087;48.392;10.836;2023-07-13T02:29:23;9.95;;;8.75;;
6113;SDS011;3087;48.392;10.836;2023-07-13T02:31:48;11.95;;;10.32;;
6113;SDS011;3087;48.392;10.836;2023-07-13T02:34:14;12.48;;;9.82;;
6113;SDS011;3087;48.392;10.836;2023-07-13T02:36:40;9.93;;;7.93;;
6113;SDS011;3087;48.392;10.836;2023-07-13T02:39:06;12.02;;;8.70;;
6113;SDS011;3087;48.392;10.836;2023-07-13T02:41:31;7.93;;;6.35;;
6113;SDS011;3087;48.392;10.836;2023-07-13T02:43:58;9.10;;;8.15;;
6113;SDS011;3087;48.392;10.836;2023-07-13T02:46:35;11.50;;;8.73;;
6113;SDS011;3087;48.392;10.836;2023-07-13T02:49:02;10.27;;;8.68;;
6113;SDS011;3087;48.392;10.836;2023-07-13T02:51:28;13.70;;;10.85;;
6113;SDS011;3087;48.392;10.836;2023-07-13T02:53:54;11.55;;;6.50;;
6113;SDS011;3087;48.392;10.836;2023-07-13T02:56:22;9.93;;;8.93;;
6113;SDS011;3087;48.392;10.836;2023-07-13T02:58:49;10.90;;;9.05;;
6113;SDS011;3087;48.392;10.836;2023-07-13T03:01:15;8.00;;;6.40;;
6113;SDS011;3087;48.392;10.836;2023-07-13T03:03:43;7.45;;;6.60;;
6113;SDS011;3087;48.392;10.836;2023-07-13T03:06:10;7.97;;;6.72;;
6113;SDS011;3087;48.392;10.836;2023-07-13T03:08:37;7.72;;;5.95;;
6113;SDS011;3087;48.392;10.836;2023-07-13T03:11:03;11.75;;;7.30;;
6113;SDS011;3087;48.392;10.836;2023-07-13T03:13:36;6.75;;;6.05;;
6113;SDS011;3087;48.392;10.836;2023-07-13T03:16:02;7.90;;;7.10;;
6113;SDS011;3087;48.392;10.836;2023-07-13T03:18:28;9.73;;;7.40;;
6113;SDS011;3087;48.392;10.836;2023-07-13T03:20:54;7.97;;;6.20;;
6113;SDS011;3087;48.392;10.836;2023-07-13T03:23:20;7.20;;;5.85;;
6113;SDS011;3087;48.392;10.836;2023-07-13T03:25:47;7.00;;;5.80;;
6113;SDS011;3087;48.392;10.836;2023-07-13T03:28:13;7.22;;;5.53;;
6113;SDS011;3087;48.392;10.836;2023-07-13T03:30:39;9.85;;;6.70;;
6113;SDS011;3087;48.392;10.836;2023-07-13T03:33:06;7.30;;;5.47;;
6113;SDS011;3087;48.392;10.836;2023-07-13T03:35:35;10.55;;;6.93;;
6113;SDS011;3087;48.392;10.836;2023-07-13T03:38:05;8.23;;;6.22;;
6113;SDS011;3087;48.392;10.836;2023-07-13T03:40:30;10.80;;;7.35;;
6113;SDS011;3087;48.392;10.836;2023-07-13T03:42:56;11.10;;;6.70;;
6113;SDS011;3087;48.392;10.836;2023-07-13T03:45:22;9.13;;;7.45;;
6113;SDS011;3087;48.392;10.836;2023-07-13T03:47:47;10.35;;;7.28;;
6113;SDS011;3087;48.392;10.836;2023-07-13T03:50:13;7.78;;;6.70;;
6113;SDS011;3087;48.392;10.836;2023-07-13T03:52:38;10.80;;;8.27;;
6113;SDS011;3087;48.392;10.836;2023-07-13T03:55:04;7.30;;;6.53;;
6113;SDS011;3087;48.392;10.836;2023-07-13T03:57:31;8.20;;;7.40;;
6113;SDS011;3087;48.392;10.836;2023-07-13T03:59:57;8.48;;;6.28;;
6113;SDS011;3087;48.392;10.836;2023-07-13T04:02:22;11.50;;;6.32;;
6113;SDS011;3087;48.392;10.836;2023-07-13T04:04:48;7.68;;;6.40;;
6113;SDS011;3087;48.392;10.836;2023-07-13T04:07:13;8.32;;;6.20;;
6113;SDS011;3087;48.392;10.836;2023-07-13T04:09:39;8.65;;;5.53;;
6113;SDS011;3087;48.392;10.836;2023-07-13T04:12:05;7.95;;;6.63;;
6113;SDS011;3087;48.392;10.836;2023-07-13T04:14:31;9.02;;;6.07;;
6113;SDS011;3087;48.392;10.836;2023-07-13T04:16:56;7.47;;;5.28;;
6113;SDS011;3087;48.392;10.836;2023-07-13T04:19:22;7.07;;;5.60;;
6113;SDS011;3087;48.392;10.836;2023-07-13T04:21:48;8.05;;;6.07;;
6113;SDS011;3087;48.392;10.836;2023-07-13T04:24:13;7.43;;;5.15;;
6113;SDS011;3087;48.392;10.836;2023-07-13T04:26:39;6.78;;;4.55;;
6113;SDS011;3087;48.392;10.836;2023-07-13T04:29:05;7.57;;;5.28;;
6113;SDS011;3087;48.392;10.836;2023-07-13T04:31:31;8.98;;;5.35;;
6113;SDS011;3087;48.392;10.836;2023-07-13T04:33:57;9.38;;;4.93;;
6113;SDS011;3087;48.392;10.836;2023-07-13T04:36:23;6.43;;;4.82;;
6113;SDS011;3087;48.392;10.836;2023-07-13T04:38:52;7.93;;;4.88;;
6113;SDS011;3087;48.392;10.836;2023-07-13T04:41:18;6.43;;;5.05;;
6113;SDS011;3087;48.392;10.836;2023-07-13T04:43:45;6.38;;;4.80;;
6113;SDS011;3087;48.392;10.836;2023-07-13T04:46:11;10.15;;;4.85;;
6113;SDS011;3087;48.392;10.836;2023-07-13T04:48:39;6.88;;;4.90;;
6113;SDS011;3087;48.392;10.836;2023-07-13T04:51:04;6.03;;;4.35;;
6113;SDS011;3087;48.392;10.836;2023-07-13T04:53:31;9.00;;;4.75;;
6113;SDS011;3087;48.392;10.836;2023-07-13T04:55:57;5.90;;;4.40;;
6113;SDS011;3087;48.392;10.836;2023-07-13T04:58:23;8.55;;;5.03;;
6113;SDS011;3087;48.392;10.836;2023-07-13T05:00:49;5.80;;;4.25;;
6113;SDS011;3087;48.392;10.836;2023-07-13T05:03:15;5.45;;;4.10;;
6113;SDS011;3087;48.392;10.836;2023-07-13T05:05:41;7.55;;;4.82;;
6113;SDS011;3087;48.392;10.836;2023-07-13T05:08:06;7.55;;;5.20;;
6113;SDS011;3087;48.392;10.836;2023-07-13T05:10:32;8.25;;;4.82;;
6113;SDS011;3087;48.392;10.836;2023-07-13T05:12:59;7.18;;;5.55;;
6113;SDS011;3087;48.392;10.836;2023-07-13T05:15:24;7.03;;;4.35;;
6113;SDS011;3087;48.392;10.836;2023-07-13T05:17:51;7.70;;;5.38;;
6113;SDS011;3087;48.392;10.836;2023-07-13T05:20:17;7.82;;;4.80;;
6113;SDS011;3087;48.392;10.836;2023-07-13T05:22:43;10.60;;;5.18;;
6113;SDS011;3087;48.392;10.836;2023-07-13T05:25:09;8.27;;;4.30;;
6113;SDS011;3087;48.392;10.836;2023-07-13T05:27:35;9.18;;;4.75;;
6113;SDS011;3087;48.392;10.836;2023-07-13T05:30:02;6.30;;;3.92;;
6113;SDS011;3087;48.392;10.836;2023-07-13T05:32:28;8.20;;;5.05;;
6113;SDS011;3087;48.392;10.836;2023-07-13T05:34:54;7.45;;;5.13;;
6113;SDS011;3087;48.392;10.836;2023-07-13T05:37:20;11.25;;;5.18;;
6113;SDS011;3087;48.392;10.836;2023-07-13T05:39:45;6.80;;;4.03;;
6113;SDS011;3087;48.392;10.836;2023-07-13T05:42:11;5.05;;;4.53;;
6113;SDS011;3087;48.392;10.836;2023-07-13T05:44:37;6.45;;;5.07;;
6113;SDS011;3087;48.392;10.836;2023-07-13T05:47:02;6.97;;;3.30;;
6113;SDS011;3087;48.392;10.836;2023-07-13T05:49:28;6.78;;;3.92;;
6113;SDS011;3087;48.392;10.836;2023-07-13T05:51:55;4.70;;;3.60;;
6113;SDS011;3087;48.392;10.836;2023-07-13T05:54:21;4.65;;;4.03;;
6113;SDS011;3087;48.392;10.836;2023-07-13T05:56:46;4.53;;;3.90;;
6113;SDS011;3087;48.392;10.836;2023-07-13T05:59:12;4.78;;;3.15;;
6113;SDS011;3087;48.392;10.836;2023-07-13T06:01:38;4.65;;;3.55;;
6113;SDS011;3087;48.392;10.836;2023-07-13T06:04:04;3.90;;;3.50;;
6113;SDS011;3087;48.392;10.836;2023-07-13T06:06:29;4.72;;;3.72;;
6113;SDS011;3087;48.392;10.836;2023-07-13T06:08:55;6.45;;;3.63;;
6113;SDS011;3087;48.392;10.836;2023-07-13T06:11:22;8.77;;;4.05;;
6113;SDS011;3087;48.392;10.836;2023-07-13T06:13:49;5.28;;;3.30;;
6113;SDS011;3087;48.392;10.836;2023-07-13T06:16:15;7.57;;;3.67;;
6113;SDS011;3087;48.392;10.836;2023-07-13T06:18:41;5.43;;;3.53;;
6113;SDS011;3087;48.392;10.836;2023-07-13T06:21:25;4.15;;;3.42;;
6113;SDS011;3087;48.392;10.836;2023-07-13T06:23:51;4.40;;;3.20;;
6113;SDS011;3087;48.392;10.836;2023-07-13T06:26:17;6.30;;;3.42;;
6113;SDS011;3087;48.392;10.836;2023-07-13T06:28:44;7.70;;;3.72;;
6113;SDS011;3087;48.392;10.836;2023-07-13T06:31:10;7.22;;;4.00;;
6113;SDS011;3087;48.392;10.836;2023-07-13T06:33:37;5.55;;;3.03;;
6113;SDS011;3087;48.392;10.836;2023-07-13T06:36:03;5.35;;;3.22;;
6113;SDS011;3087;48.392;10.836;2023-07-13T06:38:30;9.98;;;4.03;;
6113;SDS011;3087;48.392;10.836;2023-07-13T06:40:56;8.43;;;4.07;;
6113;SDS011;3087;48.392;10.836;2023-07-13T06:43:22;7.32;;;4.63;;
6113;SDS011;3087;48.392;10.836;2023-07-13T06:45:49;4.90;;;3.65;;
6113;SDS011;3087;48.392;10.836;2023-07-13T06:48:16;6.22;;;4.00;;
6113;SDS011;3087;48.392;10.836;2023-07-13T06:50:43;5.22;;;3.45;;
6113;SDS011;3087;48.392;10.836;2023-07-13T06:53:09;6.25;;;3.55;;
6113;SDS011;3087;48.392;10.836;2023-07-13T06:55:36;6.15;;;3.30;;
6113;SDS011;3087;48.392;10.836;2023-07-13T06:58:01;3.95;;;3.15;;
6113;SDS011;3087;48.392;10.836;2023-07-13T07:00:27;8.02;;;3.55;;
6113;SDS011;3087;48.392;10.836;2023-07-13T07:02:53;8.10;;;3.72;;
6113;SDS011;3087;48.392;10.836;2023-07-13T07:05:19;5.60;;;3.75;;
6113;SDS011;3087;48.392;10.836;2023-07-13T07:07:47;10.57;;;9.52;;
6113;SDS011;3087;48.392;10.836;2023-07-13T07:10:13;7.53;;;3.75;;
6113;SDS011;3087;48.392;10.836;2023-07-13T07:12:38;5.50;;;4.00;;
6113;SDS011;3087;48.392;10.836;2023-07-13T07:15:04;5.00;;;3.88;;
6113;SDS011;3087;48.392;10.836;2023-07-13T07:17:30;5.05;;;3.60;;
6113;SDS011;3087;48.392;10.836;2023-07-13T07:19:56;6.35;;;3.65;;
6113;SDS011;3087;48.392;10.836;2023-07-13T07:22:21;5.30;;;3.50;;
6113;SDS011;3087;48.392;10.836;2023-07-13T07:24:47;5.80;;;3.20;;
6113;SDS011;3087;48.392;10.836;2023-07-13T07:27:12;6.15;;;3.47;;
6113;SDS011;3087;48.392;10.836;2023-07-13T07:29:38;4.70;;;3.45;;
6113;SDS011;3087;48.392;10.836;2023-07-13T07:32:04;5.20;;;3.35;;
6113;SDS011;3087;48.392;10.836;2023-07-13T07:34:30;5.25;;;3.67;;
6113;SDS011;3087;48.392;10.836;2023-07-13T07:36:58;8.00;;;3.45;;
6113;SDS011;3087;48.392;10.836;2023-07-13T07:39:26;6.47;;;3.15;;
6113;SDS011;3087;48.392;10.836;2023-07-13T07:41:51;6.10;;;3.50;;
6113;SDS011;3087;48.392;10.836;2023-07-13T07:44:17;6.35;;;2.97;;
6113;SDS011;3087;48.392;10.836;2023-07-13T07:46:43;4.53;;;3.28;;
6113;SDS011;3087;48.392;10.836;2023-07-13T07:49:08;3.53;;;2.97;;
6113;SDS011;3087;48.392;10.836;2023-07-13T07:51:34;7.88;;;3.10;;
6113;SDS011;3087;48.392;10.836;2023-07-13T07:54:00;7.05;;;3.03;;
6113;SDS011;3087;48.392;10.836;2023-07-13T07:56:25;4.63;;;3.05;;
6113;SDS011;3087;48.392;10.836;2023-07-13T07:58:51;4.05;;;2.60;;
6113;SDS011;3087;48.392;10.836;2023-07-13T08:01:17;6.28;;;3.22;;
6113;SDS011;3087;48.392;10.836;2023-07-13T08:03:42;3.92;;;2.72;;
6113;SDS011;3087;48.392;10.836;2023-07-13T08:06:08;3.03;;;2.63;;
6113;SDS011;3087;48.392;10.836;2023-07-13T08:08:34;5.68;;;2.72;;
6113;SDS011;3087;48.392;10.836;2023-07-13T08:11:02;3.42;;;3.13;;
6113;SDS011;3087;48.392;10.836;2023-07-13T08:13:29;4.00;;;2.70;;
6113;SDS011;3087;48.392;10.836;2023-07-13T08:15:55;3.08;;;2.58;;
6113;SDS011;3087;48.392;10.836;2023-07-13T08:18:20;3.90;;;2.90;;
6113;SDS011;3087;48.392;10.836;2023-07-13T08:20:46;4.07;;;2.55;;
6113;SDS011;3087;48.392;10.836;2023-07-13T08:23:11;4.47;;;2.85;;
6113;SDS011;3087;48.392;10.836;2023-07-13T08:25:37;3.58;;;3.15;;
6113;SDS011;3087;48.392;10.836;2023-07-13T08:28:03;3.00;;;2.63;;
6113;SDS011;3087;48.392;10.836;2023-07-13T08:30:29;5.05;;;2.60;;
6113;SDS011;3087;48.392;10.836;2023-07-13T08:32:55;3.67;;;2.50;;
6113;SDS011;3087;48.392;10.836;2023-07-13T08:35:20;3.65;;;2.40;;
6113;SDS011;3087;48.392;10.836;2023-07-13T08:37:46;5.97;;;3.10;;
6113;SDS011;3087;48.392;10.836;2023-07-13T08:40:12;4.35;;;3.22;;
6113;SDS011;3087;48.392;10.836;2023-07-13T08:42:54;4.18;;;2.70;;
6113;SDS011;3087;48.392;10.836;2023-07-13T08:48:28;4.53;;;3.08;;
6113;SDS011;3087;48.392;10.836;2023-07-13T08:53:43;5.40;;;2.90;;
6113;SDS011;3087;48.392;10.836;2023-07-13T08:56:16;4.75;;;2.58;;
6113;SDS011;3087;48.392;10.836;2023-07-13T08:58:45;4.57;;;2.65;;
6113;SDS011;3087;48.392;10.836;2023-07-13T09:01:17;4.80;;;2.83;;
6113;SDS011;3087;48.392;10.836;2023-07-13T09:06:31;6.20;;;3.95;;
6113;SDS011;3087;48.392;10.836;2023-07-13T09:09:14;4.68;;;3.00;;
6113;SDS011;3087;48.392;10.836;2023-07-13T09:17:16;3.00;;;2.70;;
6113;SDS011;3087;48.392;10.836;2023-07-13T09:20:18;5.00;;;2.85;;
6113;SDS011;3087;48.392;10.836;2023-07-13T09:22:59;4.60;;;2.60;;
6113;SDS011;3087;48.392;10.836;2023-07-13T09:25:29;5.05;;;2.92;;
6113;SDS011;3087;48.392;10.836;2023-07-13T09:31:37;4.47;;;2.90;;
6113;SDS011;3087;48.392;10.836;2023-07-13T09:33:57;4.88;;;2.50;;
6113;SDS011;3087;48.392;10.836;2023-07-13T09:36:25;8.27;;;2.92;;
6113;SDS011;3087;48.392;10.836;2023-07-13T09:39:02;3.45;;;2.53;;
6113;SDS011;3087;48.392;10.836;2023-07-13T09:44:44;3.90;;;2.50;;
6113;SDS011;3087;48.392;10.836;2023-07-13T09:47:18;5.50;;;2.72;;
6113;SDS011;3087;48.392;10.836;2023-07-13T09:49:49;3.55;;;2.25;;
6113;SDS011;3087;48.392;10.836;2023-07-13T09:52:23;5.60;;;2.78;;
6113;SDS011;3087;48.392;10.836;2023-07-13T09:54:51;4.30;;;2.25;;
6113;SDS011;3087;48.392;10.836;2023-07-13T09:57:22;5.53;;;2.97;;
6113;SDS011;3087;48.392;10.836;2023-07-13T09:59:49;5.40;;;2.10;;
6113;SDS011;3087;48.392;10.836;2023-07-13T10:05:05;2.75;;;2.35;;
6113;SDS011;3087;48.392;10.836;2023-07-13T10:07:38;4.97;;;2.40;;
6113;SDS011;3087;48.392;10.836;2023-07-13T10:10:18;3.17;;;2.50;;
6113;SDS011;3087;48.392;10.836;2023-07-13T10:12:46;6.10;;;2.83;;
6113;SDS011;3087;48.392;10.836;2023-07-13T10:15:16;4.75;;;2.55;;
6113;SDS011;3087;48.392;10.836;2023-07-13T10:17:44;3.33;;;2.47;;
6113;SDS011;3087;48.392;10.836;2023-07-13T10:20:11;3.50;;;2.38;;
6113;SDS011;3087;48.392;10.836;2023-07-13T10:25:21;4.32;;;2.60;;
6113;SDS011;3087;48.392;10.836;2023-07-13T10:27:50;2.92;;;2.15;;
6113;SDS011;3087;48.392;10.836;2023-07-13T10:32:50;6.93;;;3.22;;
6113;SDS011;3087;48.392;10.836;2023-07-13T10:35:18;4.05;;;2.70;;
6113;SDS011;3087;48.392;10.836;2023-07-13T10:37:54;5.03;;;2.53;;
6113;SDS011;3087;48.392;10.836;2023-07-13T10:40:56;3.45;;;2.45;;
6113;SDS011;3087;48.392;10.836;2023-07-13T10:43:31;3.55;;;2.60;;
6113;SDS011;3087;48.392;10.836;2023-07-13T10:46:10;3.83;;;2.28;;
6113;SDS011;3087;48.392;10.836;2023-07-13T10:48:39;4.07;;;2.40;;
6113;SDS011;3087;48.392;10.836;2023-07-13T10:51:06;3.10;;;2.53;;
6113;SDS011;3087;48.392;10.836;2023-07-13T10:53:36;5.60;;;2.75;;
6113;SDS011;3087;48.392;10.836;2023-07-13T10:58:42;4.72;;;2.28;;
6113;SDS011;3087;48.392;10.836;2023-07-13T11:12:09;5.60;;;2.70;;
6113;SDS011;3087;48.392;10.836;2023-07-13T11:17:29;10.73;;;2.90;;
6113;SDS011;3087;48.392;10.836;2023-07-13T11:22:49;6.10;;;2.72;;
6113;SDS011;3087;48.392;10.836;2023-07-13T11:25:33;10.85;;;3.22;;
6113;SDS011;3087;48.392;10.836;2023-07-13T11:30:44;3.92;;;2.47;;
6113;SDS011;3087;48.392;10.836;2023-07-13T11:33:15;4.90;;;2.65;;
6113;SDS011;3087;48.392;10.836;2023-07-13T11:35:49;3.35;;;2.40;;
6113;SDS011;3087;48.392;10.836;2023-07-13T11:38:19;3.92;;;2.80;;
6113;SDS011;3087;48.392;10.836;2023-07-13T11:41:01;6.70;;;2.47;;
6113;SDS011;3087;48.392;10.836;2023-07-13T11:43:32;3.95;;;2.75;;
6113;SDS011;3087;48.392;10.836;2023-07-13T11:45:59;4.20;;;2.50;;
6113;SDS011;3087;48.392;10.836;2023-07-13T11:48:37;2.92;;;2.50;;
6113;SDS011;3087;48.392;10.836;2023-07-13T11:51:04;8.25;;;3.17;;
6113;SDS011;3087;48.392;10.836;2023-07-13T11:53:38;7.50;;;3.35;;
6113;SDS011;3087;48.392;10.836;2023-07-13T11:56:06;4.28;;;2.75;;
6113;SDS011;3087;48.392;10.836;2023-07-13T11:58:32;4.85;;;2.53;;
6113;SDS011;3087;48.392;10.836;2023-07-13T12:00:59;4.00;;;2.60;;
6113;SDS011;3087;48.392;10.836;2023-07-13T12:03:29;6.90;;;3.00;;
6113;SDS011;3087;48.392;10.836;2023-07-13T12:06:01;5.95;;;2.67;;
6113;SDS011;3087;48.392;10.836;2023-07-13T12:08:31;5.93;;;3.00;;
6113;SDS011;3087;48.392;10.836;2023-07-13T12:11:09;3.30;;;2.90;;
6113;SDS011;3087;48.392;10.836;2023-07-13T12:13:43;4.32;;;2.65;;
6113;SDS011;3087;48.392;10.836;2023-07-13T12:16:11;5.50;;;2.97;;
6113;SDS011;3087;48.392;10.836;2023-07-13T12:18:57;5.10;;;2.70;;
6113;SDS011;3087;48.392;10.836;2023-07-13T12:21:32;5.28;;;2.97;;
6113;SDS011;3087;48.392;10.836;2023-07-13T12:23:59;6.15;;;2.53;;
6113;SDS011;3087;48.392;10.836;2023-07-13T12:26:28;5.68;;;2.47;;
6113;SDS011;3087;48.392;10.836;2023-07-13T12:28:55;4.68;;;2.38;;
6113;SDS011;3087;48.392;10.836;2023-07-13T12:31:25;3.53;;;2.28;;
6113;SDS011;3087;48.392;10.836;2023-07-13T12:33:59;4.13;;;2.83;;
6113;SDS011;3087;48.392;10.836;2023-07-13T12:36:33;4.65;;;2.20;;
6113;SDS011;3087;48.392;10.836;2023-07-13T12:39:04;4.22;;;2.85;;
6113;SDS011;3087;48.392;10.836;2023-07-13T12:41:51;3.67;;;2.25;;
6113;SDS011;3087;48.392;10.836;2023-07-13T12:44:19;3.00;;;2.20;;
6113;SDS011;3087;48.392;10.836;2023-07-13T12:46:57;3.40;;;2.22;;
6113;SDS011;3087;48.392;10.836;2023-07-13T12:49:26;3.97;;;2.13;;
6113;SDS011;3087;48.392;10.836;2023-07-13T12:51:57;3.58;;;2.50;;
6113;SDS011;3087;48.392;10.836;2023-07-13T12:54:25;3.55;;;2.78;;
6113;SDS011;3087;48.392;10.836;2023-07-13T12:56:52;4.05;;;2.30;;
6113;SDS011;3087;48.392;10.836;2023-07-13T12:59:20;4.03;;;2.60;;
6113;SDS011;3087;48.392;10.836;2023-07-13T13:01:47;5.68;;;2.47;;
6113;SDS011;3087;48.392;10.836;2023-07-13T13:04:14;2.88;;;2.40;;
6113;SDS011;3087;48.392;10.836;2023-07-13T13:06:41;3.67;;;2.20;;
6113;SDS011;3087;48.392;10.836;2023-07-13T13:09:11;4.28;;;2.72;;
6113;SDS011;3087;48.392;10.836;2023-07-13T13:11:38;4.22;;;2.63;;
6113;SDS011;3087;48.392;10.836;2023-07-13T13:14:05;4.63;;;2.47;;
6113;SDS011;3087;48.392;10.836;2023-07-13T13:16:33;4.00;;;2.42;;
6113;SDS011;3087;48.392;10.836;2023-07-13T13:19:15;5.82;;;2.85;;
6113;SDS011;3087;48.392;10.836;2023-07-13T13:21:43;3.90;;;2.35;;
6113;SDS011;3087;48.392;10.836;2023-07-13T13:24:11;5.57;;;2.17;;
6113;SDS011;3087;48.392;10.836;2023-07-13T13:26:41;3.70;;;2.60;;
6113;SDS011;3087;48.392;10.836;2023-07-13T13:29:15;4.53;;;2.15;;
6113;SDS011;3087;48.392;10.836;2023-07-13T13:31:46;3.40;;;2.55;;
6113;SDS011;3087;48.392;10.836;2023-07-13T13:34:14;8.57;;;2.45;;
6113;SDS011;3087;48.392;10.836;2023-07-13T13:36:41;3.20;;;2.30;;
6113;SDS011;3087;48.392;10.836;2023-07-13T13:39:21;7.63;;;2.47;;
6113;SDS011;3087;48.392;10.836;2023-07-13T13:41:50;7.40;;;2.95;;
6113;SDS011;3087;48.392;10.836;2023-07-13T13:44:18;3.85;;;2.70;;
6113;SDS011;3087;48.392;10.836;2023-07-13T13:46:45;5.72;;;2.45;;
6113;SDS011;3087;48.392;10.836;2023-07-13T13:49:13;3.00;;;2.30;;
6113;SDS011;3087;48.392;10.836;2023-07-13T13:51:41;3.92;;;2.30;;
6113;SDS011;3087;48.392;10.836;2023-07-13T13:54:10;6.00;;;2.42;;
6113;SDS011;3087;48.392;10.836;2023-07-13T13:56:41;4.80;;;2.40;;
6113;SDS011;3087;48.392;10.836;2023-07-13T13:59:14;5.25;;;2.35;;
6113;SDS011;3087;48.392;10.836;2023-07-13T14:01:40;2.30;;;2.00;;
6113;SDS011;3087;48.392;10.836;2023-07-13T14:04:09;7.30;;;2.70;;
6113;SDS011;3087;48.392;10.836;2023-07-13T14:06:40;3.92;;;2.63;;
6113;SDS011;3087;48.392;10.836;2023-07-13T14:09:09;4.28;;;2.20;;
6113;SDS011;3087;48.392;10.836;2023-07-13T14:11:36;3.65;;;3.10;;
6113;SDS011;3087;48.392;10.836;2023-07-13T14:14:02;9.95;;;2.25;;
6113;SDS011;3087;48.392;10.836;2023-07-13T14:16:30;3.45;;;2.53;;
6113;SDS011;3087;48.392;10.836;2023-07-13T14:18:58;4.47;;;2.65;;
6113;SDS011;3087;48.392;10.836;2023-07-13T14:21:25;3.80;;;2.38;;
6113;SDS011;3087;48.392;10.836;2023-07-13T14:23:52;4.40;;;2.30;;
6113;SDS011;3087;48.392;10.836;2023-07-13T14:26:22;3.75;;;2.55;;
6113;SDS011;3087;48.392;10.836;2023-07-13T14:28:51;3.05;;;2.80;;
6113;SDS011;3087;48.392;10.836;2023-07-13T14:31:19;4.65;;;2.40;;
6113;SDS011;3087;48.392;10.836;2023-07-13T14:33:45;3.95;;;2.58;;
6113;SDS011;3087;48.392;10.836;2023-07-13T14:38:47;4.03;;;2.55;;
6113;SDS011;3087;48.392;10.836;2023-07-13T14:41:12;4.95;;;2.50;;
6113;SDS011;3087;48.392;10.836;2023-07-13T14:43:38;3.97;;;2.38;;
6113;SDS011;3087;48.392;10.836;2023-07-13T14:46:04;5.78;;;2.72;;
6113;SDS011;3087;48.392;10.836;2023-07-13T14:48:30;5.97;;;2.42;;
6113;SDS011;3087;48.392;10.836;2023-07-13T14:50:56;7.72;;;2.58;;
6113;SDS011;3087;48.392;10.836;2023-07-13T14:53:24;3.97;;;2.67;;
6113;SDS011;3087;48.392;10.836;2023-07-13T14:55:51;4.10;;;2.25;;
6113;SDS011;3087;48.392;10.836;2023-07-13T14:58:18;3.05;;;2.60;;
6113;SDS011;3087;48.392;10.836;2023-07-13T15:00:43;4.35;;;2.47;;
6113;SDS011;3087;48.392;10.836;2023-07-13T15:03:22;3.33;;;2.30;;
6113;SDS011;3087;48.392;10.836;2023-07-13T15:05:49;5.63;;;2.58;;
6113;SDS011;3087;48.392;10.836;2023-07-13T15:08:16;5.22;;;2.17;;
6113;SDS011;3087;48.392;10.836;2023-07-13T15:10:41;2.78;;;2.10;;
6113;SDS011;3087;48.392;10.836;2023-07-13T15:15:39;3.13;;;2.10;;
6113;SDS011;3087;48.392;10.836;2023-07-13T15:18:09;3.83;;;2.35;;
6113;SDS011;3087;48.392;10.836;2023-07-13T15:20:37;3.35;;;2.25;;
6113;SDS011;3087;48.392;10.836;2023-07-13T15:23:03;3.17;;;2.53;;
6113;SDS011;3087;48.392;10.836;2023-07-13T15:25:30;4.75;;;2.55;;
6113;SDS011;3087;48.392;10.836;2023-07-13T15:27:58;6.07;;;2.75;;
6113;SDS011;3087;48.392;10.836;2023-07-13T15:30:27;5.25;;;2.50;;
6113;SDS011;3087;48.392;10.836;2023-07-13T15:32:56;5.43;;;3.03;;
6113;SDS011;3087;48.392;10.836;2023-07-13T15:35:26;2.92;;;2.63;;
6113;SDS011;3087;48.392;10.836;2023-07-13T15:37:53;2.85;;;2.25;;
6113;SDS011;3087;48.392;10.836;2023-07-13T15:40:19;3.72;;;2.42;;
6113;SDS011;3087;48.392;10.836;2023-07-13T15:42:47;4.35;;;2.40;;
6113;SDS011;3087;48.392;10.836;2023-07-13T15:45:22;4.68;;;2.90;;
6113;SDS011;3087;48.392;10.836;2023-07-13T15:47:53;5.57;;;2.42;;
6113;SDS011;3087;48.392;10.836;2023-07-13T15:50:20;3.70;;;2.00;;
6113;SDS011;3087;48.392;10.836;2023-07-13T15:52:54;3.95;;;2.40;;
6113;SDS011;3087;48.392;10.836;2023-07-13T15:55:23;7.05;;;2.83;;
6113;SDS011;3087;48.392;10.836;2023-07-13T15:57:49;7.50;;;2.47;;
6113;SDS011;3087;48.392;10.836;2023-07-13T16:00:24;3.10;;;2.40;;
6113;SDS011;3087;48.392;10.836;2023-07-13T16:02:52;4.13;;;2.65;;
6113;SDS011;3087;48.392;10.836;2023-07-13T16:05:18;4.80;;;2.50;;